Language: 


Des rapports , des résumés tant et plus, au choix de chacun....


Données Historiques de Météogheer
Journalier Rapport pour Janvier 29, 2018 Unitée:  Les deux    Impériale   Métrique
Suivant Jour »
Journalier Hebdomadaire Mensuel Annuel Sur mesure
  Max: Min: Moyenne:
Température: 53.1 °F /  11.7 °C 39.9 °F /  4.4 °C 50.5 °F /  10.3 °C
Point de rosée: 51.8 °F /  11.0 °C 39.2 °F /  4.0 °C 48.4 °F /  9.1 °C
Humidité: 98% 80% 91%
Vent: 26.8mph /  43.1km/h - 12.6mph /  20.2km/h
Rafales: 32.2mph /  51.8km/h - -
Vent- - WSW
Pression: 30.4 in /  1031.0 hPa 30.2 in /  1023.9 hPa -
Pluie: 0.02 in /  0.5 mm    
Historical Graphs
 
 
Données tabulaires pour Janvier 29, 2018
Heure Température Point de rosée Pression Vent Vent Rafales Humidité Pluie Taux (Horaire) Conditions
00:02 51.8 °F /  11.0 °C 51.8 °F /  11.0 °C 30.4in /  1031.0hPa WSW 14.8mph /  23.8km/h 16.8mph /  27.0km/h 96% 0in /  0.0mm
00:07 52 °F /  11.1 °C 51.8 °F /  11.0 °C 30.4in /  1031.0hPa West 10.1mph /  16.3km/h 17.2mph /  27.7km/h 96% 0in /  0.0mm
00:12 52 °F /  11.1 °C 50 °F /  10.0 °C 30.4in /  1031.0hPa WSW 13.6mph /  21.9km/h 17.2mph /  27.7km/h 95% 0in /  0.0mm
00:17 52 °F /  11.1 °C 50 °F /  10.0 °C 30.4in /  1031.0hPa WSW 10.5mph /  16.9km/h 19.7mph /  31.7km/h 95% 0in /  0.0mm
00:22 52.2 °F /  11.2 °C 50 °F /  10.0 °C 30.4in /  1031.0hPa WSW 11.4mph /  18.3km/h 19.7mph /  31.7km/h 94% 0in /  0.0mm
00:27 52.2 °F /  11.2 °C 50 °F /  10.0 °C 30.4in /  1031.0hPa West 13.4mph /  21.6km/h 19.2mph /  30.9km/h 94% 0in /  0.0mm
00:32 52.2 °F /  11.2 °C 50 °F /  10.0 °C 30.4in /  1030.0hPa WSW 13.2mph /  21.2km/h 17.7mph /  28.5km/h 94% 0in /  0.0mm
00:37 52.2 °F /  11.2 °C 50 °F /  10.0 °C 30.4in /  1030.0hPa WSW 15.4mph /  24.8km/h 17.7mph /  28.5km/h 93% 0in /  0.0mm
00:42 52.2 °F /  11.2 °C 50 °F /  10.0 °C 30.4in /  1030.0hPa West 15.9mph /  25.6km/h 19.7mph /  31.7km/h 93% 0in /  0.0mm
00:47 52.2 °F /  11.2 °C 50 °F /  10.0 °C 30.4in /  1030.0hPa WSW 9.8mph /  15.8km/h 19.7mph /  31.7km/h 93% 0in /  0.0mm
00:52 52.2 °F /  11.2 °C 50 °F /  10.0 °C 30.4in /  1030.0hPa WSW 16.3mph /  26.2km/h 17.7mph /  28.5km/h 93% 0in /  0.0mm
00:57 52.2 °F /  11.2 °C 50 °F /  10.0 °C 30.4in /  1030.0hPa WSW 14.1mph /  22.7km/h 19.5mph /  31.4km/h 93% 0in /  0.0mm
01:03 52.2 °F /  11.2 °C 50 °F /  10.0 °C 30.4in /  1030.0hPa West 12.8mph /  20.6km/h 19.5mph /  31.4km/h 93% 0in /  0.0mm
01:08 52.3 °F /  11.3 °C 50 °F /  10.0 °C 30.4in /  1030.0hPa WSW 16.8mph /  27.0km/h 20.8mph /  33.5km/h 93% 0in /  0.0mm
01:13 52.3 °F /  11.3 °C 50 °F /  10.0 °C 30.4in /  1030.0hPa WSW 13.2mph /  21.2km/h 20.8mph /  33.5km/h 93% 0in /  0.0mm
01:18 52.2 °F /  11.2 °C 50 °F /  10.0 °C 30.4in /  1030.0hPa WSW 12.5mph /  20.1km/h 17.4mph /  28.0km/h 93% 0in /  0.0mm
01:23 52.2 °F /  11.2 °C 50 °F /  10.0 °C 30.4in /  1030.0hPa West 19.2mph /  30.9km/h 19.2mph /  30.9km/h 93% 0in /  0.0mm
01:28 52 °F /  11.1 °C 50 °F /  10.0 °C 30.4in /  1030.0hPa WSW 19.5mph /  31.4km/h 19.5mph /  31.4km/h 93% 0in /  0.0mm
01:33 52 °F /  11.1 °C 50 °F /  10.0 °C 30.4in /  1030.0hPa SW 10.1mph /  16.3km/h 19.5mph /  31.4km/h 93% 0in /  0.0mm
01:38 52 °F /  11.1 °C 50 °F /  10.0 °C 30.4in /  1030.0hPa WSW 15.2mph /  24.5km/h 19.5mph /  31.4km/h 93% 0in /  0.0mm
01:43 51.8 °F /  11.0 °C 50 °F /  10.0 °C 30.4in /  1030.0hPa WSW 17.7mph /  28.5km/h 17.7mph /  28.5km/h 93% 0in /  0.0mm
01:48 51.8 °F /  11.0 °C 50 °F /  10.0 °C 30.4in /  1030.0hPa West 14.1mph /  22.7km/h 19.2mph /  30.9km/h 93% 0in /  0.0mm
01:53 51.8 °F /  11.0 °C 50 °F /  10.0 °C 30.4in /  1030.0hPa WSW 10.5mph /  16.9km/h 19.2mph /  30.9km/h 92% 0in /  0.0mm
01:58 51.8 °F /  11.0 °C 50 °F /  10.0 °C 30.4in /  1030.0hPa WSW 13.2mph /  21.2km/h 15.4mph /  24.8km/h 92% 0in /  0.0mm
02:03 51.6 °F /  10.9 °C 50 °F /  10.0 °C 30.4in /  1030.0hPa WSW 9.8mph /  15.8km/h 17mph /  27.4km/h 93% 0in /  0.0mm
02:08 51.6 °F /  10.9 °C 50 °F /  10.0 °C 30.4in /  1030.0hPa WSW 10.5mph /  16.9km/h 17mph /  27.4km/h 93% 0in /  0.0mm
02:13 51.6 °F /  10.9 °C 50 °F /  10.0 °C 30.4in /  1030.0hPa WSW 14.8mph /  23.8km/h 19.7mph /  31.7km/h 92% 0in /  0.0mm
02:18 51.6 °F /  10.9 °C 50 °F /  10.0 °C 30.4in /  1030.0hPa WSW 12.5mph /  20.1km/h 19.7mph /  31.7km/h 92% 0in /  0.0mm
02:23 51.6 °F /  10.9 °C 50 °F /  10.0 °C 30.4in /  1030.0hPa WSW 14.5mph /  23.3km/h 17.7mph /  28.5km/h 92% 0in /  0.0mm
02:29 51.6 °F /  10.9 °C 50 °F /  10.0 °C 30.4in /  1030.0hPa WSW 13.9mph /  22.4km/h 22.1mph /  35.6km/h 92% 0in /  0.0mm
02:34 51.4 °F /  10.8 °C 48.2 °F /  9.0 °C 30.4in /  1030.0hPa WSW 12.5mph /  20.1km/h 22.1mph /  35.6km/h 92% 0in /  0.0mm
02:39 51.4 °F /  10.8 °C 48.2 °F /  9.0 °C 30.4in /  1030.0hPa WSW 13mph /  20.9km/h 19.9mph /  32.0km/h 92% 0in /  0.0mm
02:44 51.4 °F /  10.8 °C 50 °F /  10.0 °C 30.4in /  1029.0hPa West 15.2mph /  24.5km/h 22.4mph /  36.0km/h 93% 0in /  0.0mm
02:49 51.4 °F /  10.8 °C 50 °F /  10.0 °C 30.4in /  1029.0hPa WSW 16.8mph /  27.0km/h 22.4mph /  36.0km/h 93% 0in /  0.0mm
02:54 51.4 °F /  10.8 °C 50 °F /  10.0 °C 30.4in /  1029.0hPa West 12.8mph /  20.6km/h 17.7mph /  28.5km/h 93% 0in /  0.0mm
02:59 51.4 °F /  10.8 °C 50 °F /  10.0 °C 30.4in /  1029.0hPa West 14.8mph /  23.8km/h 17.7mph /  28.5km/h 93% 0in /  0.0mm
03:04 51.4 °F /  10.8 °C 50 °F /  10.0 °C 30.4in /  1029.0hPa WSW 7.6mph /  12.2km/h 16.3mph /  26.2km/h 93% 0in /  0.0mm
03:09 51.4 °F /  10.8 °C 50 °F /  10.0 °C 30.4in /  1029.0hPa West 16.1mph /  25.9km/h 17.4mph /  28.0km/h 93% 0in /  0.0mm
03:14 51.4 °F /  10.8 °C 50 °F /  10.0 °C 30.4in /  1029.0hPa WSW 12.8mph /  20.6km/h 17.7mph /  28.5km/h 93% 0in /  0.0mm
03:19 51.4 °F /  10.8 °C 50 °F /  10.0 °C 30.4in /  1029.0hPa West 15.4mph /  24.8km/h 19.5mph /  31.4km/h 94% 0in /  0.0mm
03:24 51.4 °F /  10.8 °C 50 °F /  10.0 °C 30.4in /  1029.0hPa WSW 14.8mph /  23.8km/h 19.5mph /  31.4km/h 94% 0in /  0.0mm
03:29 51.4 °F /  10.8 °C 50 °F /  10.0 °C 30.4in /  1029.0hPa West 8.1mph /  13.0km/h 18.1mph /  29.1km/h 93% 0in /  0.0mm
03:34 51.4 °F /  10.8 °C 50 °F /  10.0 °C 30.4in /  1029.0hPa WSW 17.2mph /  27.7km/h 23.9mph /  38.5km/h 93% 0in /  0.0mm
03:39 51.6 °F /  10.9 °C 50 °F /  10.0 °C 30.4in /  1029.0hPa WSW 19.7mph /  31.7km/h 23.9mph /  38.5km/h 93% 0in /  0.0mm
03:44 51.6 °F /  10.9 °C 50 °F /  10.0 °C 30.4in /  1029.0hPa West 15.4mph /  24.8km/h 22.6mph /  36.4km/h 93% 0in /  0.0mm
03:49 51.6 °F /  10.9 °C 50 °F /  10.0 °C 30.4in /  1029.0hPa WSW 18.1mph /  29.1km/h 23.3mph /  37.5km/h 92% 0in /  0.0mm
03:54 51.6 °F /  10.9 °C 50 °F /  10.0 °C 30.4in /  1029.0hPa WSW 14.5mph /  23.3km/h 23.3mph /  37.5km/h 92% 0in /  0.0mm
03:59 51.6 °F /  10.9 °C 50 °F /  10.0 °C 30.4in /  1029.0hPa WSW 17.7mph /  28.5km/h 23.3mph /  37.5km/h 91% 0in /  0.0mm
04:04 51.8 °F /  11.0 °C 50 °F /  10.0 °C 30.4in /  1029.0hPa West 12.5mph /  20.1km/h 19.7mph /  31.7km/h 91% 0in /  0.0mm
04:09 51.8 °F /  11.0 °C 48.2 °F /  9.0 °C 30.4in /  1029.0hPa WSW 15.7mph /  25.3km/h 22.4mph /  36.0km/h 90% 0in /  0.0mm
04:14 51.8 °F /  11.0 °C 48.2 °F /  9.0 °C 30.4in /  1029.0hPa West 10.7mph /  17.2km/h 22.4mph /  36.0km/h 90% 0in /  0.0mm
04:19 51.8 °F /  11.0 °C 48.2 °F /  9.0 °C 30.4in /  1029.0hPa WSW 16.1mph /  25.9km/h 19.2mph /  30.9km/h 90% 0in /  0.0mm
04:24 51.8 °F /  11.0 °C 48.2 °F /  9.0 °C 30.4in /  1029.0hPa WSW 10.5mph /  16.9km/h 21.5mph /  34.6km/h 90% 0in /  0.0mm
04:29 51.6 °F /  10.9 °C 50 °F /  10.0 °C 30.4in /  1029.0hPa WSW 10.5mph /  16.9km/h 21.5mph /  34.6km/h 91% 0in /  0.0mm
04:34 51.6 °F /  10.9 °C 50 °F /  10.0 °C 30.4in /  1029.0hPa West 11mph /  17.7km/h 19mph /  30.6km/h 92% 0in /  0.0mm
04:39 51.6 °F /  10.9 °C 50 °F /  10.0 °C 30.4in /  1029.0hPa WSW 18.1mph /  29.1km/h 19.9mph /  32.0km/h 92% 0in /  0.0mm
04:44 51.6 °F /  10.9 °C 50 °F /  10.0 °C 30.4in /  1029.0hPa WSW 12.8mph /  20.6km/h 25.3mph /  40.7km/h 92% 0in /  0.0mm
04:49 51.6 °F /  10.9 °C 50 °F /  10.0 °C 30.4in /  1029.0hPa West 23.7mph /  38.1km/h 25.3mph /  40.7km/h 92% 0in /  0.0mm
04:54 51.6 °F /  10.9 °C 50 °F /  10.0 °C 30.4in /  1029.0hPa West 19.7mph /  31.7km/h 23.7mph /  38.1km/h 92% 0in /  0.0mm
04:59 51.6 °F /  10.9 °C 50 °F /  10.0 °C 30.4in /  1029.0hPa WSW 15.7mph /  25.3km/h 23.9mph /  38.5km/h 92% 0in /  0.0mm
05:05 51.6 °F /  10.9 °C 50 °F /  10.0 °C 30.4in /  1029.0hPa WSW 17mph /  27.4km/h 25.3mph /  40.7km/h 91% 0in /  0.0mm
05:10 51.6 °F /  10.9 °C 50 °F /  10.0 °C 30.4in /  1029.0hPa WSW 17.2mph /  27.7km/h 25.3mph /  40.7km/h 91% 0in /  0.0mm
05:15 51.8 °F /  11.0 °C 48.2 °F /  9.0 °C 30.4in /  1028.0hPa West 10.5mph /  16.9km/h 27.3mph /  43.9km/h 89% 0in /  0.0mm
05:20 51.8 °F /  11.0 °C 48.2 °F /  9.0 °C 30.4in /  1028.0hPa West 24.6mph /  39.6km/h 27.3mph /  43.9km/h 89% 0in /  0.0mm
05:25 51.8 °F /  11.0 °C 48.2 °F /  9.0 °C 30.4in /  1028.0hPa West 20.4mph /  32.8km/h 25.5mph /  41.0km/h 89% 0in /  0.0mm
05:30 51.8 °F /  11.0 °C 48.2 °F /  9.0 °C 30.4in /  1028.0hPa WSW 16.8mph /  27.0km/h 25.1mph /  40.4km/h 88% 0in /  0.0mm
05:35 51.8 °F /  11.0 °C 48.2 °F /  9.0 °C 30.4in /  1028.0hPa WSW 19.7mph /  31.7km/h 24.2mph /  38.9km/h 89% 0in /  0.0mm
05:40 51.6 °F /  10.9 °C 48.2 °F /  9.0 °C 30.4in /  1028.0hPa WSW 13.6mph /  21.9km/h 22.4mph /  36.0km/h 90% 0in /  0.0mm
05:45 51.6 °F /  10.9 °C 50 °F /  10.0 °C 30.4in /  1028.0hPa WSW 16.6mph /  26.7km/h 21.3mph /  34.3km/h 91% 0in /  0.0mm
05:50 51.6 °F /  10.9 °C 50 °F /  10.0 °C 30.4in /  1028.0hPa WSW 12.5mph /  20.1km/h 21.3mph /  34.3km/h 91% 0in /  0.0mm
05:55 51.4 °F /  10.8 °C 48.2 °F /  9.0 °C 30.4in /  1028.0hPa WSW 17.4mph /  28.0km/h 18.1mph /  29.1km/h 92% 0in /  0.0mm
06:00 51.3 °F /  10.7 °C 50 °F /  10.0 °C 30.4in /  1028.0hPa WSW 15.4mph /  24.8km/h 19.5mph /  31.4km/h 93% 0in /  0.0mm
06:05 51.3 °F /  10.7 °C 50 °F /  10.0 °C 30.4in /  1028.0hPa WSW 11mph /  17.7km/h 19.9mph /  32.0km/h 94% 0in /  0.0mm
06:10 51.1 °F /  10.6 °C 50 °F /  10.0 °C 30.4in /  1028.0hPa West 13.4mph /  21.6km/h 19.9mph /  32.0km/h 94% 0in /  0.0mm
06:15 51.1 °F /  10.6 °C 50 °F /  10.0 °C 30.4in /  1028.0hPa WSW 9.6mph /  15.4km/h 17.2mph /  27.7km/h 95% 0in /  0.0mm
06:20 51.1 °F /  10.6 °C 50 °F /  10.0 °C 30.4in /  1028.0hPa WSW 12.3mph /  19.8km/h 17.2mph /  27.7km/h 95% 0in /  0.0mm
06:25 51.1 °F /  10.6 °C 50 °F /  10.0 °C 30.4in /  1028.0hPa West 11mph /  17.7km/h 17.9mph /  28.8km/h 94% 0in /  0.0mm
06:30 51.3 °F /  10.7 °C 50 °F /  10.0 °C 30.4in /  1028.0hPa West 12.1mph /  19.5km/h 17.9mph /  28.8km/h 94% 0in /  0.0mm
06:35 51.3 °F /  10.7 °C 50 °F /  10.0 °C 30.4in /  1028.0hPa WSW 11.2mph /  18.0km/h 17.4mph /  28.0km/h 93% 0in /  0.0mm
06:40 51.3 °F /  10.7 °C 50 °F /  10.0 °C 30.4in /  1028.0hPa WSW 14.5mph /  23.3km/h 19.7mph /  31.7km/h 93% 0in /  0.0mm
06:45 51.3 °F /  10.7 °C 50 °F /  10.0 °C 30.4in /  1029.0hPa WSW 7.6mph /  12.2km/h 19.7mph /  31.7km/h 94% 0in /  0.0mm
06:50 51.1 °F /  10.6 °C 50 °F /  10.0 °C 30.4in /  1029.0hPa West 17.9mph /  28.8km/h 17.9mph /  28.8km/h 94% 0in /  0.0mm
06:55 51.1 °F /  10.6 °C 50 °F /  10.0 °C 30.4in /  1029.0hPa WSW 13.4mph /  21.6km/h 21.9mph /  35.2km/h 95% 0in /  0.0mm
07:00 50.9 °F /  10.5 °C 50 °F /  10.0 °C 30.4in /  1029.0hPa WSW 13mph /  20.9km/h 21.9mph /  35.2km/h 95% 0in /  0.0mm
07:06 50.9 °F /  10.5 °C 50 °F /  10.0 °C 30.4in /  1029.0hPa West 16.3mph /  26.2km/h 17.4mph /  28.0km/h 94% 0in /  0.0mm
07:11 51.1 °F /  10.6 °C 50 °F /  10.0 °C 30.4in /  1029.0hPa WSW 17.2mph /  27.7km/h 17.4mph /  28.0km/h 94% 0in /  0.0mm
07:16 51.1 °F /  10.6 °C 50 °F /  10.0 °C 30.4in /  1028.0hPa WSW 9.6mph /  15.4km/h 19.2mph /  30.9km/h 94% 0in /  0.0mm
07:21 50.9 °F /  10.5 °C 50 °F /  10.0 °C 30.4in /  1028.0hPa WSW 12.1mph /  19.5km/h 19.2mph /  30.9km/h 94% 0in /  0.0mm
07:26 50.9 °F /  10.5 °C 50 °F /  10.0 °C 30.4in /  1028.0hPa West 22.6mph /  36.4km/h 32.2mph /  51.8km/h 93% 0in /  0.0mm
07:31 51.1 °F /  10.6 °C 48.2 °F /  9.0 °C 30.4in /  1029.0hPa WSW 12.8mph /  20.6km/h 32.2mph /  51.8km/h 89% 0in /  0.0mm
07:36 51.1 °F /  10.6 °C 48.2 °F /  9.0 °C 30.4in /  1029.0hPa West 17mph /  27.4km/h 27.3mph /  43.9km/h 89% 0in /  0.0mm
07:41 51.1 °F /  10.6 °C 48.2 °F /  9.0 °C 30.4in /  1029.0hPa West 12.5mph /  20.1km/h 21mph /  33.8km/h 89% 0in /  0.0mm
07:46 51.1 °F /  10.6 °C 48.2 °F /  9.0 °C 30.4in /  1029.0hPa WSW 9.6mph /  15.4km/h 21.9mph /  35.2km/h 89% 0in /  0.0mm
07:51 51.1 °F /  10.6 °C 48.2 °F /  9.0 °C 30.4in /  1029.0hPa WSW 22.1mph /  35.6km/h 26.4mph /  42.5km/h 89% 0in /  0.0mm
07:56 51.3 °F /  10.7 °C 48.2 °F /  9.0 °C 30.4in /  1029.0hPa SW 13.9mph /  22.4km/h 26.4mph /  42.5km/h 87% 0in /  0.0mm
08:01 51.3 °F /  10.7 °C 48.2 °F /  9.0 °C 30.3in /  1027.0hPa WSW 17.4mph /  28.0km/h 25.9mph /  41.7km/h 86% 0in /  0.0mm
08:06 51.3 °F /  10.7 °C 48.2 °F /  9.0 °C 30.3in /  1027.0hPa SW 21.9mph /  35.2km/h 25.7mph /  41.4km/h 86% 0in /  0.0mm
08:11 51.3 °F /  10.7 °C 48.2 °F /  9.0 °C 30.3in /  1027.0hPa West 15.2mph /  24.5km/h 25.7mph /  41.4km/h 87% 0in /  0.0mm
08:16 51.3 °F /  10.7 °C 48.2 °F /  9.0 °C 30.3in /  1027.0hPa WSW 15.7mph /  25.3km/h 23.5mph /  37.8km/h 86% 0in /  0.0mm
08:21 51.3 °F /  10.7 °C 48.2 °F /  9.0 °C 30.3in /  1027.0hPa SSW 15.4mph /  24.8km/h 23.3mph /  37.5km/h 87% 0in /  0.0mm
08:26 51.3 °F /  10.7 °C 48.2 °F /  9.0 °C 30.3in /  1027.0hPa WSW 15.4mph /  24.8km/h 23.3mph /  37.5km/h 86% 0in /  0.0mm
08:31 51.3 °F /  10.7 °C 48.2 °F /  9.0 °C 30.3in /  1027.0hPa WSW 12.5mph /  20.1km/h 22.6mph /  36.4km/h 86% 0in /  0.0mm
08:36 51.3 °F /  10.7 °C 48.2 °F /  9.0 °C 30.3in /  1027.0hPa WSW 6mph /  9.7km/h 24.4mph /  39.3km/h 85% 0in /  0.0mm
08:41 51.3 °F /  10.7 °C 48.2 °F /  9.0 °C 30.3in /  1027.0hPa WSW 16.1mph /  25.9km/h 24.4mph /  39.3km/h 85% 0in /  0.0mm
08:46 51.1 °F /  10.6 °C 48.2 °F /  9.0 °C 30.4in /  1028.0hPa West 15.4mph /  24.8km/h 22.1mph /  35.6km/h 85% 0in /  0.0mm
08:51 51.3 °F /  10.7 °C 48.2 °F /  9.0 °C 30.4in /  1028.0hPa WSW 16.6mph /  26.7km/h 21.5mph /  34.6km/h 85% 0in /  0.0mm
08:56 51.3 °F /  10.7 °C 48.2 °F /  9.0 °C 30.4in /  1028.0hPa West 12.1mph /  19.5km/h 23.7mph /  38.1km/h 85% 0in /  0.0mm
09:01 51.3 °F /  10.7 °C 48.2 °F /  9.0 °C 30.4in /  1028.0hPa West 17mph /  27.4km/h 24.2mph /  38.9km/h 85% 0in /  0.0mm
09:06 51.1 °F /  10.6 °C 48.2 °F /  9.0 °C 30.4in /  1028.0hPa WSW 13.6mph /  21.9km/h 24.2mph /  38.9km/h 85% 0in /  0.0mm
09:11 51.1 °F /  10.6 °C 48.2 °F /  9.0 °C 30.4in /  1028.0hPa WSW 9.8mph /  15.8km/h 19.5mph /  31.4km/h 85% 0in /  0.0mm
09:16 51.1 °F /  10.6 °C 48.2 °F /  9.0 °C 30.4in /  1028.0hPa West 19.9mph /  32.0km/h 19.9mph /  32.0km/h 85% 0in /  0.0mm
09:21 51.3 °F /  10.7 °C 48.2 °F /  9.0 °C 30.4in /  1028.0hPa West 17.7mph /  28.5km/h 19.9mph /  32.0km/h 85% 0in /  0.0mm
09:26 51.3 °F /  10.7 °C 48.2 °F /  9.0 °C 30.4in /  1028.0hPa WSW 10.7mph /  17.2km/h 21.3mph /  34.3km/h 85% 0in /  0.0mm
09:31 51.3 °F /  10.7 °C 48.2 °F /  9.0 °C 30.3in /  1027.0hPa West 18.6mph /  29.9km/h 21.3mph /  34.3km/h 85% 0in /  0.0mm
09:36 51.3 °F /  10.7 °C 48.2 °F /  9.0 °C 30.3in /  1027.0hPa West 14.8mph /  23.8km/h 26.2mph /  42.2km/h 85% 0in /  0.0mm
09:42 51.3 °F /  10.7 °C 48.2 °F /  9.0 °C 30.3in /  1027.0hPa West 12.1mph /  19.5km/h 26.2mph /  42.2km/h 85% 0in /  0.0mm
09:47 51.4 °F /  10.8 °C 48.2 °F /  9.0 °C 30.3in /  1027.0hPa West 16.1mph /  25.9km/h 25.1mph /  40.4km/h 85% 0in /  0.0mm
09:52 51.4 °F /  10.8 °C 48.2 °F /  9.0 °C 30.3in /  1027.0hPa West 10.1mph /  16.3km/h 23.5mph /  37.8km/h 85% 0in /  0.0mm
09:57 51.4 °F /  10.8 °C 48.2 °F /  9.0 °C 30.3in /  1027.0hPa WSW 15.4mph /  24.8km/h 21.5mph /  34.6km/h 85% 0in /  0.0mm
10:02 51.4 °F /  10.8 °C 48.2 °F /  9.0 °C 30.3in /  1027.0hPa WSW 11mph /  17.7km/h 21.3mph /  34.3km/h 85% 0in /  0.0mm
10:07 51.4 °F /  10.8 °C 48.2 °F /  9.0 °C 30.3in /  1027.0hPa WSW 18.6mph /  29.9km/h 21.3mph /  34.3km/h 85% 0in /  0.0mm
10:12 51.4 °F /  10.8 °C 48.2 °F /  9.0 °C 30.3in /  1027.0hPa West 15.7mph /  25.3km/h 22.1mph /  35.6km/h 85% 0in /  0.0mm
10:17 51.4 °F /  10.8 °C 48.2 °F /  9.0 °C 30.3in /  1027.0hPa WSW 10.1mph /  16.3km/h 22.1mph /  35.6km/h 85% 0in /  0.0mm
10:22 51.4 °F /  10.8 °C 48.2 °F /  9.0 °C 30.3in /  1027.0hPa WSW 12.8mph /  20.6km/h 18.1mph /  29.1km/h 85% 0in /  0.0mm
10:28 51.4 °F /  10.8 °C 48.2 °F /  9.0 °C 30.3in /  1027.0hPa West 15.9mph /  25.6km/h 20.1mph /  32.3km/h 85% 0in /  0.0mm
10:33 51.6 °F /  10.9 °C 48.2 °F /  9.0 °C 30.3in /  1027.0hPa WSW 12.3mph /  19.8km/h 24.6mph /  39.6km/h 85% 0in /  0.0mm
10:38 51.6 °F /  10.9 °C 48.2 °F /  9.0 °C 30.3in /  1027.0hPa WSW 18.6mph /  29.9km/h 24.6mph /  39.6km/h 85% 0in /  0.0mm
10:43 51.6 °F /  10.9 °C 48.2 °F /  9.0 °C 30.3in /  1027.0hPa WSW 12.5mph /  20.1km/h 22.6mph /  36.4km/h 85% 0in /  0.0mm
10:48 51.6 °F /  10.9 °C 48.2 °F /  9.0 °C 30.3in /  1027.0hPa WSW 26.4mph /  42.5km/h 26.4mph /  42.5km/h 85% 0in /  0.0mm
10:53 51.8 °F /  11.0 °C 48.2 °F /  9.0 °C 30.3in /  1027.0hPa WSW 19.9mph /  32.0km/h 26.4mph /  42.5km/h 84% 0in /  0.0mm
10:58 51.8 °F /  11.0 °C 48.2 °F /  9.0 °C 30.3in /  1027.0hPa WSW 25.7mph /  41.4km/h 26.4mph /  42.5km/h 84% 0in /  0.0mm
11:03 51.8 °F /  11.0 °C 48.2 °F /  9.0 °C 30.3in /  1027.0hPa West 24.6mph /  39.6km/h 25.7mph /  41.4km/h 84% 0in /  0.0mm
11:08 51.8 °F /  11.0 °C 46.4 °F /  8.0 °C 30.3in /  1027.0hPa WSW 16.8mph /  27.0km/h 25.7mph /  41.4km/h 83% 0in /  0.0mm
11:13 51.6 °F /  10.9 °C 48.2 °F /  9.0 °C 30.3in /  1027.0hPa SSW 12.1mph /  19.5km/h 23.7mph /  38.1km/h 84% 0in /  0.0mm
11:18 51.6 °F /  10.9 °C 48.2 °F /  9.0 °C 30.3in /  1027.0hPa West 23.5mph /  37.8km/h 24.6mph /  39.6km/h 84% 0in /  0.0mm
11:23 51.6 °F /  10.9 °C 48.2 °F /  9.0 °C 30.3in /  1027.0hPa WSW 17.2mph /  27.7km/h 24.6mph /  39.6km/h 84% 0in /  0.0mm
11:28 51.8 °F /  11.0 °C 48.2 °F /  9.0 °C 30.3in /  1027.0hPa West 22.1mph /  35.6km/h 23.5mph /  37.8km/h 84% 0in /  0.0mm
11:33 51.8 °F /  11.0 °C 48.2 °F /  9.0 °C 30.3in /  1027.0hPa West 16.6mph /  26.7km/h 27.5mph /  44.2km/h 84% 0in /  0.0mm
11:38 51.8 °F /  11.0 °C 46.4 °F /  8.0 °C 30.3in /  1027.0hPa WSW 17.4mph /  28.0km/h 27.5mph /  44.2km/h 83% 0in /  0.0mm
11:43 52 °F /  11.1 °C 46.4 °F /  8.0 °C 30.3in /  1027.0hPa West 10.3mph /  16.6km/h 26.2mph /  42.2km/h 81% 0in /  0.0mm
11:48 52 °F /  11.1 °C 46.4 °F /  8.0 °C 30.3in /  1027.0hPa WSW 23.3mph /  37.5km/h 26.2mph /  42.2km/h 81% 0in /  0.0mm
11:53 52 °F /  11.1 °C 46.4 °F /  8.0 °C 30.3in /  1027.0hPa West 15.4mph /  24.8km/h 26.4mph /  42.5km/h 80% 0in /  0.0mm
11:58 52 °F /  11.1 °C 46.4 °F /  8.0 °C 30.3in /  1027.0hPa WSW 22.6mph /  36.4km/h 26.4mph /  42.5km/h 81% 0in /  0.0mm
12:03 51.8 °F /  11.0 °C 48.2 °F /  9.0 °C 30.3in /  1027.0hPa WSW 19.2mph /  30.9km/h 25.9mph /  41.7km/h 84% 0in /  0.0mm
12:08 51.4 °F /  10.8 °C 48.2 °F /  9.0 °C 30.3in /  1027.0hPa West 15.9mph /  25.6km/h 25.9mph /  41.7km/h 86% 0in /  0.0mm
12:13 51.3 °F /  10.7 °C 48.2 °F /  9.0 °C 30.3in /  1027.0hPa SSW 12.3mph /  19.8km/h 23.7mph /  38.1km/h 88% 0in /  0.0mm
12:18 51.3 °F /  10.7 °C 48.2 °F /  9.0 °C 30.3in /  1027.0hPa West 17.7mph /  28.5km/h 23.7mph /  38.1km/h 89% 0in /  0.0mm
12:23 51.4 °F /  10.8 °C 48.2 °F /  9.0 °C 30.3in /  1027.0hPa West 15.7mph /  25.3km/h 19.9mph /  32.0km/h 89% 0in /  0.0mm
12:28 51.4 °F /  10.8 °C 48.2 °F /  9.0 °C 30.3in /  1027.0hPa WSW 14.5mph /  23.3km/h 22.6mph /  36.4km/h 89% 0in /  0.0mm
12:33 51.4 °F /  10.8 °C 48.2 °F /  9.0 °C 30.4in /  1028.0hPa West 16.8mph /  27.0km/h 22.8mph /  36.7km/h 89% 0in /  0.0mm
12:38 51.1 °F /  10.6 °C 48.2 °F /  9.0 °C 30.4in /  1028.0hPa West 13mph /  20.9km/h 22.8mph /  36.7km/h 90% 0in /  0.0mm
12:43 50.9 °F /  10.5 °C 48.2 °F /  9.0 °C 30.3in /  1027.0hPa WSW 19.9mph /  32.0km/h 22.6mph /  36.4km/h 91% 0in /  0.0mm
12:48 50.7 °F /  10.4 °C 48.2 °F /  9.0 °C 30.3in /  1027.0hPa West 17mph /  27.4km/h 22.6mph /  36.4km/h 92% 0in /  0.0mm
12:53 50.7 °F /  10.4 °C 48.2 °F /  9.0 °C 30.3in /  1027.0hPa West 15.9mph /  25.6km/h 23.3mph /  37.5km/h 93% 0in /  0.0mm
12:59 50.7 °F /  10.4 °C 48.2 °F /  9.0 °C 30.3in /  1027.0hPa WSW 14.8mph /  23.8km/h 23.3mph /  37.5km/h 93% 0in /  0.0mm
13:04 51.1 °F /  10.6 °C 48.2 °F /  9.0 °C 30.3in /  1027.0hPa WSW 15.7mph /  25.3km/h 22.4mph /  36.0km/h 92% 0in /  0.0mm
13:09 51.1 °F /  10.6 °C 48.2 °F /  9.0 °C 30.3in /  1027.0hPa WSW 17mph /  27.4km/h 21mph /  33.8km/h 92% 0in /  0.0mm
13:14 51.3 °F /  10.7 °C 48.2 °F /  9.0 °C 30.3in /  1027.0hPa WSW 23.5mph /  37.8km/h 25.1mph /  40.4km/h 91% 0in /  0.0mm
13:19 51.3 °F /  10.7 °C 48.2 °F /  9.0 °C 30.3in /  1027.0hPa WSW 15.9mph /  25.6km/h 25.1mph /  40.4km/h 89% 0in /  0.0mm
13:24 51.4 °F /  10.8 °C 48.2 °F /  9.0 °C 30.3in /  1027.0hPa West 17.4mph /  28.0km/h 21.3mph /  34.3km/h 88% 0in /  0.0mm
13:29 51.6 °F /  10.9 °C 48.2 °F /  9.0 °C 30.3in /  1027.0hPa West 12.8mph /  20.6km/h 24.6mph /  39.6km/h 86% 0in /  0.0mm
13:34 51.8 °F /  11.0 °C 48.2 °F /  9.0 °C 30.3in /  1027.0hPa WSW 13mph /  20.9km/h 24.6mph /  39.6km/h 85% 0in /  0.0mm
13:39 52 °F /  11.1 °C 48.2 °F /  9.0 °C 30.3in /  1027.0hPa West 17.4mph /  28.0km/h 23.5mph /  37.8km/h 85% 0in /  0.0mm
13:44 52 °F /  11.1 °C 48.2 °F /  9.0 °C 30.3in /  1027.0hPa WSW 14.5mph /  23.3km/h 22.8mph /  36.7km/h 84% 0in /  0.0mm
13:49 52.2 °F /  11.2 °C 48.2 °F /  9.0 °C 30.3in /  1026.0hPa WSW 22.8mph /  36.7km/h 22.8mph /  36.7km/h 84% 0in /  0.0mm
13:54 52.2 °F /  11.2 °C 48.2 °F /  9.0 °C 30.3in /  1026.0hPa WSW 12.3mph /  19.8km/h 22.8mph /  36.7km/h 83% 0in /  0.0mm
13:59 52.3 °F /  11.3 °C 48.2 °F /  9.0 °C 30.3in /  1026.0hPa West 13.4mph /  21.6km/h 19.9mph /  32.0km/h 83% 0in /  0.0mm
14:04 52.3 °F /  11.3 °C 48.2 °F /  9.0 °C 30.3in /  1026.0hPa WSW 16.1mph /  25.9km/h 19.9mph /  32.0km/h 83% 0in /  0.0mm
14:09 52.5 °F /  11.4 °C 48.2 °F /  9.0 °C 30.3in /  1026.0hPa WSW 12.8mph /  20.6km/h 23.5mph /  37.8km/h 82% 0in /  0.0mm
14:14 52.7 °F /  11.5 °C 48.2 °F /  9.0 °C 30.3in /  1024.9hPa West 13.2mph /  21.2km/h 23.5mph /  37.8km/h 83% 0in /  0.0mm
14:19 52.7 °F /  11.5 °C 48.2 °F /  9.0 °C 30.3in /  1024.9hPa WSW 16.6mph /  26.7km/h 22.6mph /  36.4km/h 83% 0in /  0.0mm
14:25 52.7 °F /  11.5 °C 48.2 °F /  9.0 °C 30.3in /  1024.9hPa WSW 26.6mph /  42.8km/h 26.6mph /  42.8km/h 83% 0in /  0.0mm
14:30 52.5 °F /  11.4 °C 48.2 °F /  9.0 °C 30.3in /  1024.9hPa WSW 22.4mph /  36.0km/h 26.6mph /  42.8km/h 83% 0in /  0.0mm
14:35 52.7 °F /  11.5 °C 48.2 °F /  9.0 °C 30.3in /  1024.9hPa WSW 23.3mph /  37.5km/h 25.9mph /  41.7km/h 83% 0in /  0.0mm
14:40 52.7 °F /  11.5 °C 48.2 °F /  9.0 °C 30.3in /  1024.9hPa WSW 19.7mph /  31.7km/h 25.3mph /  40.7km/h 84% 0in /  0.0mm
14:45 52.7 °F /  11.5 °C 48.2 °F /  9.0 °C 30.3in /  1024.9hPa WSW 16.6mph /  26.7km/h 22.6mph /  36.4km/h 84% 0in /  0.0mm
14:50 52.9 °F /  11.6 °C 48.2 °F /  9.0 °C 30.3in /  1024.9hPa West 19.7mph /  31.7km/h 22.6mph /  36.4km/h 84% 0in /  0.0mm
14:55 53.1 °F /  11.7 °C 48.2 °F /  9.0 °C 30.3in /  1024.9hPa WSW 13mph /  20.9km/h 26.4mph /  42.5km/h 84% 0in /  0.0mm
15:00 53.1 °F /  11.7 °C 48.2 °F /  9.0 °C 30.2in /  1023.9hPa WSW 14.5mph /  23.3km/h 26.4mph /  42.5km/h 84% 0in /  0.0mm
15:05 53.1 °F /  11.7 °C 48.2 °F /  9.0 °C 30.2in /  1023.9hPa WSW 22.6mph /  36.4km/h 25.9mph /  41.7km/h 84% 0in /  0.0mm
15:10 52.9 °F /  11.6 °C 48.2 °F /  9.0 °C 30.2in /  1023.9hPa WSW 19.9mph /  32.0km/h 30mph /  48.3km/h 84% 0in /  0.0mm
15:15 52.7 °F /  11.5 °C 48.2 °F /  9.0 °C 30.3in /  1024.9hPa West 18.6mph /  29.9km/h 30mph /  48.3km/h 84% 0in /  0.0mm
15:20 52.7 °F /  11.5 °C 48.2 °F /  9.0 °C 30.3in /  1024.9hPa WSW 26.2mph /  42.2km/h 26.2mph /  42.2km/h 84% 0in /  0.0mm
15:25 52.7 °F /  11.5 °C 48.2 °F /  9.0 °C 30.3in /  1024.9hPa WSW 22.8mph /  36.7km/h 26.2mph /  42.2km/h 85% 0in /  0.0mm
15:30 52.7 °F /  11.5 °C 48.2 °F /  9.0 °C 30.3in /  1024.9hPa WSW 20.1mph /  32.3km/h 24.2mph /  38.9km/h 85% 0in /  0.0mm
15:35 52.9 °F /  11.6 °C 48.2 °F /  9.0 °C 30.3in /  1024.9hPa WSW 12.8mph /  20.6km/h 29.1mph /  46.8km/h 84% 0in /  0.0mm
15:40 52.9 °F /  11.6 °C 48.2 °F /  9.0 °C 30.3in /  1024.9hPa WSW 12.3mph /  19.8km/h 29.3mph /  47.1km/h 84% 0in /  0.0mm
15:45 52.9 °F /  11.6 °C 48.2 °F /  9.0 °C 30.3in /  1024.9hPa WSW 17.7mph /  28.5km/h 29.3mph /  47.1km/h 84% 0in /  0.0mm
15:50 52.7 °F /  11.5 °C 48.2 °F /  9.0 °C 30.3in /  1024.9hPa West 22.4mph /  36.0km/h 26.8mph /  43.1km/h 85% 0in /  0.0mm
15:55 52.7 °F /  11.5 °C 48.2 °F /  9.0 °C 30.3in /  1024.9hPa West 17.2mph /  27.7km/h 26.8mph /  43.1km/h 85% 0in /  0.0mm
16:00 52.5 °F /  11.4 °C 48.2 °F /  9.0 °C 30.2in /  1023.9hPa West 23mph /  37.0km/h 30mph /  48.3km/h 85% 0in /  0.0mm
16:05 52.5 °F /  11.4 °C 48.2 °F /  9.0 °C 30.2in /  1023.9hPa WSW 22.1mph /  35.6km/h 30mph /  48.3km/h 85% 0in /  0.0mm
16:10 52.5 °F /  11.4 °C 48.2 °F /  9.0 °C 30.2in /  1023.9hPa West 26.6mph /  42.8km/h 26.8mph /  43.1km/h 85% 0in /  0.0mm
16:15 52.5 °F /  11.4 °C 48.2 °F /  9.0 °C 30.3in /  1024.9hPa West 25.5mph /  41.0km/h 27.5mph /  44.2km/h 85% 0in /  0.0mm
16:20 52.3 °F /  11.3 °C 48.2 °F /  9.0 °C 30.3in /  1024.9hPa West 15.4mph /  24.8km/h 27.5mph /  44.2km/h 86% 0in /  0.0mm
16:25 52.3 °F /  11.3 °C 48.2 °F /  9.0 °C 30.3in /  1024.9hPa West 17.4mph /  28.0km/h 26.2mph /  42.2km/h 86% 0in /  0.0mm
16:30 52.2 °F /  11.2 °C 48.2 °F /  9.0 °C 30.2in /  1023.9hPa WSW 14.8mph /  23.8km/h 23.5mph /  37.8km/h 87% 0in /  0.0mm
16:35 52.2 °F /  11.2 °C 48.2 °F /  9.0 °C 30.2in /  1023.9hPa WSW 13.9mph /  22.4km/h 25.5mph /  41.0km/h 88% 0in /  0.0mm
16:40 52 °F /  11.1 °C 48.2 °F /  9.0 °C 30.2in /  1023.9hPa West 15.7mph /  25.3km/h 25.5mph /  41.0km/h 88% 0in /  0.0mm
16:45 52 °F /  11.1 °C 48.2 °F /  9.0 °C 30.3in /  1024.9hPa WSW 11mph /  17.7km/h 23.5mph /  37.8km/h 89% 0in /  0.0mm
16:50 51.6 °F /  10.9 °C 50 °F /  10.0 °C 30.3in /  1024.9hPa WSW 19.9mph /  32.0km/h 23.5mph /  37.8km/h 91% 0in /  0.0mm
16:55 51.6 °F /  10.9 °C 50 °F /  10.0 °C 30.3in /  1024.9hPa West 11mph /  17.7km/h 22.8mph /  36.7km/h 92% 0in /  0.0mm
17:00 51.4 °F /  10.8 °C 50 °F /  10.0 °C 30.3in /  1024.9hPa West 15.7mph /  25.3km/h 22.8mph /  36.7km/h 93% 0in /  0.0mm
17:05 51.3 °F /  10.7 °C 50 °F /  10.0 °C 30.3in /  1024.9hPa WSW 26.8mph /  43.1km/h 26.8mph /  43.1km/h 94% 0in /  0.0mm
17:10 51.3 °F /  10.7 °C 50 °F /  10.0 °C 30.3in /  1024.9hPa West 15.2mph /  24.5km/h 26.8mph /  43.1km/h 94% 0in /  0.0mm
17:16 51.3 °F /  10.7 °C 50 °F /  10.0 °C 30.3in /  1024.9hPa West 14.8mph /  23.8km/h 26.8mph /  43.1km/h 95% 0in /  0.0mm
17:21 51.3 °F /  10.7 °C 50 °F /  10.0 °C 30.3in /  1024.9hPa WSW 15.4mph /  24.8km/h 23.9mph /  38.5km/h 95% 0in /  0.0mm
17:26 51.3 °F /  10.7 °C 50 °F /  10.0 °C 30.3in /  1024.9hPa West 11mph /  17.7km/h 22.6mph /  36.4km/h 95% 0in /  0.0mm
17:31 51.4 °F /  10.8 °C 50 °F /  10.0 °C 30.3in /  1024.9hPa West 14.5mph /  23.3km/h 22.6mph /  36.4km/h 94% 0in /  0.0mm
17:36 51.4 °F /  10.8 °C 50 °F /  10.0 °C 30.3in /  1024.9hPa WSW 21.9mph /  35.2km/h 21.9mph /  35.2km/h 94% 0in /  0.0mm
17:41 51.6 °F /  10.9 °C 50 °F /  10.0 °C 30.3in /  1024.9hPa WSW 10.3mph /  16.6km/h 23.7mph /  38.1km/h 94% 0in /  0.0mm
17:46 51.6 °F /  10.9 °C 50 °F /  10.0 °C 30.3in /  1024.9hPa West 11mph /  17.7km/h 23.7mph /  38.1km/h 94% 0in /  0.0mm
17:51 51.6 °F /  10.9 °C 50 °F /  10.0 °C 30.3in /  1024.9hPa WNW 15.7mph /  25.3km/h 22.8mph /  36.7km/h 94% 0in /  0.0mm
17:56 51.6 °F /  10.9 °C 50 °F /  10.0 °C 30.3in /  1024.9hPa WSW 19.9mph /  32.0km/h 24.2mph /  38.9km/h 94% 0in /  0.0mm
18:01 51.8 °F /  11.0 °C 50 °F /  10.0 °C 30.3in /  1026.0hPa WSW 12.8mph /  20.6km/h 24.2mph /  38.9km/h 93% 0in /  0.0mm
18:06 51.6 °F /  10.9 °C 50 °F /  10.0 °C 30.3in /  1026.0hPa West 7.8mph /  12.6km/h 24.2mph /  38.9km/h 94% 0in /  0.0mm
18:11 51.6 °F /  10.9 °C 50 °F /  10.0 °C 30.3in /  1026.0hPa West 14.8mph /  23.8km/h 19.7mph /  31.7km/h 94% 0in /  0.0mm
18:16 51.6 °F /  10.9 °C 50 °F /  10.0 °C 30.3in /  1026.0hPa WSW 11mph /  17.7km/h 19.7mph /  31.7km/h 94% 0in /  0.0mm
18:21 51.6 °F /  10.9 °C 50 °F /  10.0 °C 30.3in /  1026.0hPa West 10.7mph /  17.2km/h 19.2mph /  30.9km/h 94% 0in /  0.0mm
18:26 51.6 °F /  10.9 °C 50 °F /  10.0 °C 30.3in /  1026.0hPa WSW 16.6mph /  26.7km/h 19.5mph /  31.4km/h 95% 0in /  0.0mm
18:31 51.6 °F /  10.9 °C 50 °F /  10.0 °C 30.3in /  1026.0hPa West 12.8mph /  20.6km/h 19.5mph /  31.4km/h 95% 0in /  0.0mm
18:36 51.6 °F /  10.9 °C 50 °F /  10.0 °C 30.3in /  1026.0hPa West 7.6mph /  12.2km/h 19.5mph /  31.4km/h 95% 0in /  0.0mm
18:41 51.6 °F /  10.9 °C 50 °F /  10.0 °C 30.3in /  1026.0hPa West 15.9mph /  25.6km/h 19.5mph /  31.4km/h 95% 0in /  0.0mm
18:46 51.6 °F /  10.9 °C 50 °F /  10.0 °C 30.3in /  1026.0hPa West 13mph /  20.9km/h 18.1mph /  29.1km/h 95% 0in /  0.0mm
18:51 51.6 °F /  10.9 °C 51.8 °F /  11.0 °C 30.3in /  1026.0hPa West 10.3mph /  16.6km/h 18.1mph /  29.1km/h 96% 0in /  0.0mm
18:56 51.6 °F /  10.9 °C 51.8 °F /  11.0 °C 30.3in /  1026.0hPa West 12.8mph /  20.6km/h 17.4mph /  28.0km/h 96% 0in /  0.0mm
19:01 51.6 °F /  10.9 °C 51.8 °F /  11.0 °C 30.3in /  1026.0hPa West 6mph /  9.7km/h 17.4mph /  28.0km/h 96% 0in /  0.0mm
19:06 51.6 °F /  10.9 °C 51.8 °F /  11.0 °C 30.3in /  1026.0hPa North 8.7mph /  14.0km/h 17.2mph /  27.7km/h 96% 0in /  0.0mm
19:11 51.6 °F /  10.9 °C 51.8 °F /  11.0 °C 30.3in /  1026.0hPa North 5.8mph /  9.3km/h 8.7mph /  14.0km/h 97% 0in /  0.0mm
19:16 50.9 °F /  10.5 °C 50 °F /  10.0 °C 30.3in /  1027.0hPa NW 2.7mph /  4.3km/h 13.2mph /  21.2km/h 94% 0.01in /  0.3mm
19:21 50.4 °F /  10.2 °C 48.2 °F /  9.0 °C 30.3in /  1027.0hPa NNW 3.1mph /  5.0km/h 13.2mph /  21.2km/h 93% 0.02in /  0.5mm
19:26 50 °F /  10.0 °C 48.2 °F /  9.0 °C 30.3in /  1027.0hPa NE 3.8mph /  6.1km/h 8.7mph /  14.0km/h 92% 0.02in /  0.5mm
19:31 49.8 °F /  9.9 °C 48.2 °F /  9.0 °C 30.3in /  1027.0hPa NNE 2.9mph /  4.7km/h 8.7mph /  14.0km/h 93% 0.02in /  0.5mm
19:36 49.6 °F /  9.8 °C 48.2 °F /  9.0 °C 30.3in /  1027.0hPa NW 2.5mph /  4.0km/h 7.4mph /  11.9km/h 93% 0.02in /  0.5mm
19:41 49.5 °F /  9.7 °C 48.2 °F /  9.0 °C 30.3in /  1027.0hPa NW 3.8mph /  6.1km/h 7.4mph /  11.9km/h 94% 0.02in /  0.5mm
19:46 49.5 °F /  9.7 °C 48.2 °F /  9.0 °C 30.3in /  1027.0hPa West 2.5mph /  4.0km/h 7.2mph /  11.6km/h 94% 0.02in /  0.5mm
19:51 49.5 °F /  9.7 °C 48.2 °F /  9.0 °C 30.3in /  1027.0hPa WNW 2.2mph /  3.5km/h 9.6mph /  15.4km/h 94% 0.02in /  0.5mm
19:56 49.3 °F /  9.6 °C 48.2 °F /  9.0 °C 30.3in /  1027.0hPa NNW 7.4mph /  11.9km/h 9.6mph /  15.4km/h 95% 0.02in /  0.5mm
20:01 49.3 °F /  9.6 °C 48.2 °F /  9.0 °C 30.3in /  1027.0hPa NW 6.3mph /  10.1km/h 7.8mph /  12.6km/h 95% 0.02in /  0.5mm
20:06 49.1 °F /  9.5 °C 48.2 °F /  9.0 °C 30.3in /  1027.0hPa West 4.9mph /  7.9km/h 7.4mph /  11.9km/h 95% 0.02in /  0.5mm
20:11 49.1 °F /  9.5 °C 48.2 °F /  9.0 °C 30.3in /  1027.0hPa West 2mph /  3.2km/h 6.3mph /  10.1km/h 95% 0.01in /  0.3mm
20:16 48.9 °F /  9.4 °C 48.2 °F /  9.0 °C 30.4in /  1028.0hPa WNW 3.4mph /  5.5km/h 4mph /  6.4km/h 95% 0.01in /  0.3mm
20:21 48.9 °F /  9.4 °C 48.2 °F /  9.0 °C 30.4in /  1028.0hPa WNW 4mph /  6.4km/h 6.5mph /  10.5km/h 95% 0in /  0.0mm
20:26 48.7 °F /  9.3 °C 48.2 °F /  9.0 °C 30.4in /  1028.0hPa WNW 1.1mph /  1.8km/h 6.5mph /  10.5km/h 95% 0in /  0.0mm
20:32 48.7 °F /  9.3 °C 48.2 °F /  9.0 °C 30.4in /  1028.0hPa Calm   7.6mph /  12.2km/h 95% 0in /  0.0mm
20:37 48.7 °F /  9.3 °C 48.2 °F /  9.0 °C 30.4in /  1028.0hPa Calm   7.6mph /  12.2km/h 95% 0in /  0.0mm
20:42 48.6 °F /  9.2 °C 48.2 °F /  9.0 °C 30.4in /  1028.0hPa NNW 0.9mph /  1.4km/h 7.6mph /  12.2km/h 95% 0in /  0.0mm
20:47 48.6 °F /  9.2 °C 48.2 °F /  9.0 °C 30.4in /  1028.0hPa WNW 2mph /  3.2km/h 4.9mph /  7.9km/h 95% 0in /  0.0mm
20:52 48.4 °F /  9.1 °C 48.2 °F /  9.0 °C 30.4in /  1028.0hPa Calm   4.9mph /  7.9km/h 95% 0in /  0.0mm
20:57 48.4 °F /  9.1 °C 48.2 °F /  9.0 °C 30.4in /  1028.0hPa Calm   4.3mph /  6.9km/h 95% 0in /  0.0mm
21:02 48.2 °F /  9.0 °C 48.2 °F /  9.0 °C 30.4in /  1029.0hPa Calm   4.7mph /  7.6km/h 95% 0in /  0.0mm
21:07 48 °F /  8.9 °C 48.2 °F /  9.0 °C 30.4in /  1029.0hPa Calm   4.7mph /  7.6km/h 95% 0in /  0.0mm
21:12 47.7 °F /  8.7 °C 46.4 °F /  8.0 °C 30.4in /  1029.0hPa Calm   4.3mph /  6.9km/h 95% 0in /  0.0mm
21:17 47.5 °F /  8.6 °C 46.4 °F /  8.0 °C 30.4in /  1029.0hPa Calm   3.4mph /  5.5km/h 95% 0in /  0.0mm
21:22 47.3 °F /  8.5 °C 46.4 °F /  8.0 °C 30.4in /  1029.0hPa WNW 3.8mph /  6.1km/h 3.8mph /  6.1km/h 95% 0in /  0.0mm
21:27 46.9 °F /  8.3 °C 46.4 °F /  8.0 °C 30.4in /  1029.0hPa Calm   3.8mph /  6.1km/h 95% 0in /  0.0mm
21:32 46.8 °F /  8.2 °C 46.4 °F /  8.0 °C 30.4in /  1029.0hPa Calm   3.8mph /  6.1km/h 95% 0in /  0.0mm
21:37 46.4 °F /  8.0 °C 46.4 °F /  8.0 °C 30.4in /  1029.0hPa West 2.9mph /  4.7km/h 3.8mph /  6.1km/h 95% 0in /  0.0mm
21:42 46 °F /  7.8 °C 44.6 °F /  7.0 °C 30.4in /  1029.0hPa Calm   3.8mph /  6.1km/h 95% 0in /  0.0mm
21:47 45.9 °F /  7.7 °C 44.6 °F /  7.0 °C 30.4in /  1029.0hPa Calm   2.9mph /  4.7km/h 95% 0in /  0.0mm
21:52 45.3 °F /  7.4 °C 44.6 °F /  7.0 °C 30.4in /  1029.0hPa Calm     95% 0in /  0.0mm
21:57 45.1 °F /  7.3 °C 44.6 °F /  7.0 °C 30.4in /  1029.0hPa Calm   3.4mph /  5.5km/h 96% 0in /  0.0mm
22:02 45 °F /  7.2 °C 44.6 °F /  7.0 °C 30.4in /  1029.0hPa Calm   3.4mph /  5.5km/h 96% 0in /  0.0mm
22:07 44.8 °F /  7.1 °C 44.6 °F /  7.0 °C 30.4in /  1029.0hPa Calm     96% 0in /  0.0mm
22:12 44.8 °F /  7.1 °C 44.6 °F /  7.0 °C 30.4in /  1029.0hPa Calm   2.9mph /  4.7km/h 97% 0in /  0.0mm
22:17 44.6 °F /  7.0 °C 44.6 °F /  7.0 °C 30.4in /  1029.0hPa Calm   2.9mph /  4.7km/h 97% 0in /  0.0mm
22:22 44.6 °F /  7.0 °C 44.6 °F /  7.0 °C 30.4in /  1029.0hPa Calm   1.3mph /  2.1km/h 97% 0in /  0.0mm
22:27 44.2 °F /  6.8 °C 42.8 °F /  6.0 °C 30.4in /  1029.0hPa West 1.6mph /  2.6km/h 2.2mph /  3.5km/h 97% 0in /  0.0mm
22:32 44.1 °F /  6.7 °C 42.8 °F /  6.0 °C 30.4in /  1029.0hPa Calm   4mph /  6.4km/h 97% 0in /  0.0mm
22:37 43.5 °F /  6.4 °C 42.8 °F /  6.0 °C 30.4in /  1029.0hPa Calm   4mph /  6.4km/h 97% 0in /  0.0mm
22:42 43.2 °F /  6.2 °C 42.8 °F /  6.0 °C 30.4in /  1029.0hPa Calm     97% 0in /  0.0mm
22:47 43 °F /  6.1 °C 42.8 °F /  6.0 °C 30.4in /  1029.0hPa Calm     97% 0in /  0.0mm
22:52 42.8 °F /  6.0 °C 42.8 °F /  6.0 °C 30.4in /  1029.0hPa Calm   2.2mph /  3.5km/h 97% 0in /  0.0mm
22:57 42.6 °F /  5.9 °C 42.8 °F /  6.0 °C 30.4in /  1029.0hPa Calm   2.5mph /  4.0km/h 97% 0in /  0.0mm
23:03 42.4 °F /  5.8 °C 42.8 °F /  6.0 °C 30.4in /  1029.0hPa Calm   3.1mph /  5.0km/h 97% 0in /  0.0mm
23:08 42.3 °F /  5.7 °C 42.8 °F /  6.0 °C 30.4in /  1029.0hPa Calm   3.1mph /  5.0km/h 98% 0in /  0.0mm
23:13 42.3 °F /  5.7 °C 42.8 °F /  6.0 °C 30.4in /  1029.0hPa Calm     98% 0in /  0.0mm
23:18 42.1 °F /  5.6 °C 42.8 °F /  6.0 °C 30.4in /  1030.0hPa West 0.9mph /  1.4km/h 3.1mph /  5.0km/h 98% 0in /  0.0mm
23:23 41.9 °F /  5.5 °C 42.8 °F /  6.0 °C 30.4in /  1030.0hPa Calm   3.1mph /  5.0km/h 98% 0in /  0.0mm
23:28 41.7 °F /  5.4 °C 42.8 °F /  6.0 °C 30.4in /  1030.0hPa Calm   1.3mph /  2.1km/h 98% 0in /  0.0mm
23:33 41.5 °F /  5.3 °C 42.8 °F /  6.0 °C 30.4in /  1029.0hPa Calm     98% 0in /  0.0mm
23:38 41.4 °F /  5.2 °C 41 °F /  5.0 °C 30.4in /  1029.0hPa Calm     98% 0in /  0.0mm
23:43 40.6 °F /  4.8 °C 41 °F /  5.0 °C 30.4in /  1029.0hPa Calm   3.1mph /  5.0km/h 98% 0in /  0.0mm
23:48 40.3 °F /  4.6 °C 39.2 °F /  4.0 °C 30.4in /  1029.0hPa Calm   3.1mph /  5.0km/h 97% 0in /  0.0mm
23:53 40.1 °F /  4.5 °C 39.2 °F /  4.0 °C 30.4in /  1029.0hPa Calm     97% 0in /  0.0mm
23:58 39.9 °F /  4.4 °C 39.2 °F /  4.0 °C 30.4in /  1029.0hPa Calm     97% 0in /  0.0mm
Données Historique de Météo Turbie

Mise a jour : 20/05/2018 19:34:22
Généré par Cumulus 1.9.4 (1099)